Time;durP1;ratioP1;P1;durP2;ratioP2;P2;SDS_P1;SDS_P2;PMS_P1;PMS_P2;Temp;Humidity;BMP_temperature;BMP_pressure;BME280_temperature;BME280_humidity;BME280_pressure;Samples;Min_cycle;Max_cycle;Signal;HPM_P1;HPM_P2
2024/01/28 00:02:17;;;;;;;24.90;18.20;;;;;;;1.89;76.71;100892.88;105835;1252;65534;-72
2024/01/28 00:04:44;;;;;;;26.70;19.30;;;;;;;1.89;76.71;100897.03;106223;1251;60190;-72
2024/01/28 00:07:11;;;;;;;24.30;18.00;;;;;;;1.89;76.72;100898.45;105948;1256;59237;-72
2024/01/28 00:09:37;;;;;;;25.40;19.60;;;;;;;1.88;76.74;100900.20;105801;1260;63166;-72
2024/01/28 00:12:05;;;;;;;26.70;18.70;;;;;;;1.87;76.72;100899.71;105897;1254;59740;-73
2024/01/28 00:14:32;;;;;;;26.30;18.60;;;;;;;2.26;75.87;100891.34;106108;1257;63853;-72
2024/01/28 00:16:59;;;;;;;24.60;18.40;;;;;;;2.52;75.00;100897.19;105871;1254;60162;-72
2024/01/28 00:19:26;;;;;;;25.70;18.50;;;;;;;2.55;74.66;100897.25;105861;1251;59788;-70
2024/01/28 00:21:53;;;;;;;25.20;17.70;;;;;;;2.54;74.53;100901.44;105803;1257;64491;-69
2024/01/28 00:24:21;;;;;;;26.30;17.70;;;;;;;2.54;74.46;100908.41;105576;1259;59858;-69
2024/01/28 00:26:48;;;;;;;25.40;17.70;;;;;;;2.54;74.41;100909.08;105684;1252;64040;-69
2024/01/28 00:29:15;;;;;;;23.70;17.20;;;;;;;2.56;74.32;100913.19;105625;1254;59670;-69
2024/01/28 00:31:42;;;;;;;25.50;17.60;;;;;;;2.55;74.23;100913.73;105802;1256;59724;-71
2024/01/28 00:34:09;;;;;;;27.90;18.60;;;;;;;2.55;74.23;100918.42;106056;1253;64396;-70
2024/01/28 00:36:36;;;;;;;25.60;18.60;;;;;;;2.55;74.17;100922.98;105981;1251;59740;-70
2024/01/28 00:39:03;;;;;;;27.40;19.00;;;;;;;2.55;74.16;100919.81;105877;1251;64079;-70
2024/01/28 00:41:30;;;;;;;26.50;17.60;;;;;;;2.56;74.20;100922.91;105953;1256;60073;-71
2024/01/28 00:43:58;;;;;;;26.20;18.70;;;;;;;2.56;74.09;100919.10;105848;1257;59573;-70
2024/01/28 00:46:24;;;;;;;30.80;19.90;;;;;;;2.56;74.03;100919.79;106003;1256;64223;-70
2024/01/28 00:48:51;;;;;;;27.80;18.80;;;;;;;2.55;74.05;100920.34;105872;1251;59640;-70
2024/01/28 00:51:18;;;;;;;28.20;18.60;;;;;;;2.53;74.04;100919.89;105990;1251;62909;-71
2024/01/28 00:53:45;;;;;;;26.10;18.20;;;;;;;2.52;74.02;100923.08;106062;1257;59715;-71
2024/01/28 00:56:16;;;;;;;26.80;18.20;;;;;;;2.50;74.00;100922.44;105589;1251;59725;-70
2024/01/28 00:58:43;;;;;;;26.10;18.30;;;;;;;2.50;73.97;100920.17;105781;1255;64405;-71
2024/01/28 01:01:10;;;;;;;27.70;18.60;;;;;;;2.50;73.92;100919.30;106124;1251;59653;-73
2024/01/28 01:03:37;;;;;;;27.90;18.40;;;;;;;2.49;73.97;100926.11;106008;1251;63970;-71
2024/01/28 01:06:07;;;;;;;30.90;19.00;;;;;;;2.50;74.03;100929.77;106285;1254;59648;-69
2024/01/28 01:08:34;;;;;;;28.60;18.80;;;;;;;2.50;73.99;100930.59;105596;1251;59263;-70
2024/01/28 01:11:03;;;;;;;27.10;18.10;;;;;;;2.51;74.01;100933.20;106088;1254;64192;-69
2024/01/28 01:13:31;;;;;;;25.10;17.60;;;;;;;2.50;73.98;100936.34;105961;1254;60145;-69
2024/01/28 01:15:58;;;;;;;25.90;17.70;;;;;;;2.51;73.99;100940.85;105378;1260;63803;-71
2024/01/28 01:18:25;;;;;;;26.90;18.50;;;;;;;2.51;73.94;100943.63;106298;1251;61727;-71
2024/01/28 01:20:52;;;;;;;27.30;18.30;;;;;;;2.50;73.94;100945.91;105795;1251;59653;-70
2024/01/28 01:23:19;;;;;;;27.70;17.90;;;;;;;2.52;73.97;100944.99;106019;1251;64419;-71
2024/01/28 01:25:46;;;;;;;26.90;17.70;;;;;;;2.54;73.91;100945.27;106287;1254;59374;-71
2024/01/28 01:28:13;;;;;;;29.60;18.90;;;;;;;2.56;73.89;100950.05;105599;1254;63890;-71
2024/01/28 01:30:40;;;;;;;26.60;18.70;;;;;;;2.56;73.83;100950.55;105576;1251;59734;-71
2024/01/28 01:33:07;;;;;;;30.10;18.60;;;;;;;2.57;73.89;100957.30;105758;1251;59657;-71
2024/01/28 01:35:35;;;;;;;30.50;19.00;;;;;;;2.57;73.86;100961.48;105709;1251;64461;-71
2024/01/28 01:38:01;;;;;;;31.00;19.70;;;;;;;2.57;73.79;100959.56;105852;1251;59570;-71
2024/01/28 01:40:28;;;;;;;28.60;18.50;;;;;;;2.57;73.85;100962.50;105349;1254;63971;-71
2024/01/28 01:42:56;;;;;;;29.70;18.80;;;;;;;2.56;73.84;100964.29;105831;1254;59863;-71
2024/01/28 01:45:23;;;;;;;31.40;19.80;;;;;;;2.55;73.91;100966.09;105863;1251;60619;-71
2024/01/28 01:47:50;;;;;;;29.70;19.20;;;;;;;2.54;73.86;100966.80;105579;1257;64206;-71
2024/01/28 01:50:17;;;;;;;28.80;18.70;;;;;;;2.54;73.97;100970.80;105593;1257;59729;-71
2024/01/28 01:52:44;;;;;;;31.30;19.00;;;;;;;2.55;73.92;100975.47;105513;1254;64482;-70
2024/01/28 01:55:12;;;;;;;29.10;18.40;;;;;;;2.55;73.94;100978.23;105685;1251;59685;-71
2024/01/28 01:57:39;;;;;;;30.60;19.20;;;;;;;2.55;73.94;100979.29;105607;1254;59700;-70
2024/01/28 02:00:08;;;;;;;31.70;19.50;;;;;;;2.56;73.95;100980.65;105796;1257;64340;-70
2024/01/28 02:02:35;;;;;;;32.10;19.50;;;;;;;2.56;74.03;100980.80;105788;1254;59721;-70
2024/01/28 02:05:02;;;;;;;32.70;19.80;;;;;;;2.57;74.07;100979.55;105445;1261;63824;-72
2024/01/28 02:07:30;;;;;;;32.90;19.10;;;;;;;2.58;74.05;100984.21;105875;1257;59772;-74
2024/01/28 02:09:56;;;;;;;32.10;19.50;;;;;;;2.60;73.99;100987.96;106092;1255;59631;-71
2024/01/28 02:12:23;;;;;;;33.90;20.10;;;;;;;2.61;74.00;100991.59;106072;1256;64183;-71
2024/01/28 02:14:50;;;;;;;32.80;19.60;;;;;;;2.62;73.97;100996.09;105852;1251;59748;-71
2024/01/28 02:17:17;;;;;;;31.50;19.10;;;;;;;2.63;74.00;101001.63;105670;1251;64090;-71
2024/01/28 02:19:44;;;;;;;30.30;18.70;;;;;;;2.62;74.00;101005.66;105584;1251;60453;-71
2024/01/28 02:22:13;;;;;;;29.50;18.20;;;;;;;2.63;74.00;101011.55;105923;1251;60447;-71
2024/01/28 02:24:40;;;;;;;32.80;19.30;;;;;;;2.62;73.94;101018.50;105505;1260;65139;-73
2024/01/28 02:27:07;;;;;;;31.30;19.10;;;;;;;2.62;73.96;101019.91;105732;1256;60446;-72
2024/01/28 02:29:34;;;;;;;31.90;19.10;;;;;;;2.61;73.96;101022.73;105523;1251;64064;-72
2024/01/28 02:32:01;;;;;;;34.50;20.30;;;;;;;2.61;73.97;101024.62;105468;1254;60409;-73
2024/01/28 02:34:28;;;;;;;32.90;19.60;;;;;;;2.61;73.94;101027.94;105561;1251;60411;-71
2024/01/28 02:36:55;;;;;;;35.00;19.70;;;;;;;2.60;73.97;101028.30;106080;1251;65149;-72
2024/01/28 02:39:23;;;;;;;33.00;19.50;;;;;;;2.59;73.92;101031.95;106018;1255;60556;-71
2024/01/28 02:41:50;;;;;;;32.60;19.70;;;;;;;2.59;74.01;101035.11;105513;1251;64029;-70
2024/01/28 02:44:16;;;;;;;33.50;19.70;;;;;;;2.59;74.03;101033.90;105808;1251;60450;-71
2024/01/28 02:46:43;;;;;;;35.80;19.60;;;;;;;2.58;73.94;101034.10;105577;1251;60612;-71
2024/01/28 02:49:10;;;;;;;32.20;20.00;;;;;;;2.57;73.98;101038.32;105878;1251;65182;-72
2024/01/28 02:51:38;;;;;;;31.30;19.10;;;;;;;2.57;74.01;101045.63;105728;1251;59549;-71
2024/01/28 02:54:05;;;;;;;37.50;20.40;;;;;;;2.58;74.10;101046.78;106126;1254;64036;-72
2024/01/28 02:56:32;;;;;;;34.30;20.00;;;;;;;2.61;74.08;101050.90;105778;1256;60456;-72
2024/01/28 02:58:59;;;;;;;36.00;20.80;;;;;;;2.62;74.04;101051.21;105831;1256;60423;-73
2024/01/28 03:01:26;;;;;;;37.80;20.50;;;;;;;2.63;74.12;101053.96;105447;1257;65163;-73
2024/01/28 03:03:53;;;;;;;38.30;20.60;;;;;;;2.63;74.09;101053.77;105872;1253;60482;-73
2024/01/28 03:06:20;;;;;;;36.80;20.60;;;;;;;2.64;74.18;101058.05;105787;1251;63745;-73
2024/01/28 03:08:47;;;;;;;35.10;20.00;;;;;;;2.66;74.21;101061.14;105998;1251;60347;-73
2024/01/28 03:11:15;;;;;;;35.00;21.00;;;;;;;2.66;74.13;101060.79;105531;1253;60483;-73
2024/01/28 03:13:42;;;;;;;37.10;21.00;;;;;;;2.66;74.22;101060.43;105946;1256;65122;-71
2024/01/28 03:16:10;;;;;;;39.30;22.20;;;;;;;2.67;74.22;101062.99;105639;1251;60562;-73
2024/01/28 03:18:37;;;;;;;37.40;21.50;;;;;;;2.69;74.23;101064.84;106021;1251;64060;-73
2024/01/28 03:21:04;;;;;;;39.60;21.60;;;;;;;2.70;74.22;101069.67;105013;1254;60562;-72
2024/01/28 03:23:31;;;;;;;40.00;22.20;;;;;;;2.71;74.18;101072.63;105447;1251;60687;-72
2024/01/28 03:25:59;;;;;;;40.20;21.10;;;;;;;2.72;74.22;101075.19;105665;1251;65523;-71
2024/01/28 03:28:26;;;;;;;38.20;21.10;;;;;;;2.72;74.21;101079.69;105455;1251;60419;-70
2024/01/28 03:30:53;;;;;;;37.60;21.30;;;;;;;2.72;74.21;101084.55;105359;1257;64037;-71
2024/01/28 03:33:20;;;;;;;36.30;21.50;;;;;;;2.73;74.16;101084.70;105474;1258;59607;-69
2024/01/28 03:35:47;;;;;;;37.90;20.40;;;;;;;2.73;74.20;101088.19;105796;1253;60429;-71
2024/01/28 03:38:14;;;;;;;35.40;21.40;;;;;;;2.73;74.15;101094.64;105424;1251;65277;-70
2024/01/28 03:40:43;;;;;;;38.50;20.40;;;;;;;2.72;74.16;101100.25;105588;1253;60554;-70
2024/01/28 03:43:10;;;;;;;39.50;22.20;;;;;;;2.71;74.19;101105.14;105635;1257;63788;-69
2024/01/28 03:45:37;;;;;;;37.10;21.30;;;;;;;2.70;74.19;101106.20;105598;1256;60332;-69
2024/01/28 03:48:05;;;;;;;35.10;21.10;;;;;;;2.70;74.24;101112.64;106021;1251;60919;-70
2024/01/28 03:50:32;;;;;;;34.90;20.30;;;;;;;2.70;74.27;101117.15;105419;1253;65294;-70
2024/01/28 03:52:59;;;;;;;36.90;21.50;;;;;;;2.71;74.23;101119.06;105530;1258;60309;-71
2024/01/28 03:55:26;;;;;;;34.80;20.70;;;;;;;2.71;74.23;101122.69;105418;1257;63035;-70
2024/01/28 03:57:53;;;;;;;38.80;22.10;;;;;;;2.70;74.27;101127.23;105569;1256;60448;-71
2024/01/28 04:00:28;;;;;;;37.30;21.00;;;;;;;2.71;74.27;101132.08;106214;1251;60534;-72
2024/01/28 04:02:56;;;;;;;32.30;20.00;;;;;;;2.72;74.27;101134.14;105462;1251;63768;-70
2024/01/28 04:05:23;;;;;;;35.10;19.90;;;;;;;2.73;74.24;101138.79;106036;1251;60479;-70
2024/01/28 04:07:50;;;;;;;36.20;21.20;;;;;;;2.74;74.26;101142.92;106043;1253;64004;-71
2024/01/28 04:10:17;;;;;;;34.20;20.30;;;;;;;2.74;74.19;101147.27;105621;1257;60543;-70
2024/01/28 04:12:45;;;;;;;34.80;21.10;;;;;;;2.74;74.23;101151.95;105625;1251;60405;-70
2024/01/28 04:15:12;;;;;;;35.90;20.70;;;;;;;2.75;74.22;101150.21;105713;1256;65238;-70
2024/01/28 04:17:39;;;;;;;31.70;19.70;;;;;;;2.75;74.21;101151.07;106009;1253;60441;-72
2024/01/28 04:20:08;;;;;;;34.50;19.70;;;;;;;2.76;74.20;101153.98;105528;1253;64836;-70
2024/01/28 04:22:35;;;;;;;33.10;20.10;;;;;;;2.76;74.19;101155.19;105615;1251;60342;-70
2024/01/28 04:25:02;;;;;;;34.40;20.90;;;;;;;2.78;74.16;101159.30;105881;1251;60537;-69
2024/01/28 04:27:29;;;;;;;33.90;21.00;;;;;;;2.77;74.19;101162.61;105677;1256;65192;-69
2024/01/28 04:29:56;;;;;;;34.70;21.00;;;;;;;2.77;74.17;101163.68;105604;1251;60517;-69
2024/01/28 04:32:23;;;;;;;32.30;20.60;;;;;;;2.77;74.19;101167.32;106306;1252;64013;-68
2024/01/28 04:34:50;;;;;;;31.50;19.30;;;;;;;2.78;74.17;101169.22;105920;1251;60568;-70
2024/01/28 04:37:17;;;;;;;36.60;20.90;;;;;;;2.79;74.24;101172.14;105858;1251;60537;-70
2024/01/28 04:39:44;;;;;;;34.80;20.60;;;;;;;2.78;74.23;101176.33;105547;1253;65801;-69
2024/01/28 04:42:12;;;;;;;33.80;20.20;;;;;;;2.78;74.31;101182.94;105617;1253;60568;-70
2024/01/28 04:44:39;;;;;;;34.20;20.60;;;;;;;2.79;74.19;101184.64;105560;1251;64037;-70
2024/01/28 04:47:06;;;;;;;32.20;20.00;;;;;;;2.81;74.26;101185.30;105564;1252;60360;-71
2024/01/28 04:49:32;;;;;;;33.80;19.80;;;;;;;2.81;74.20;101188.44;106285;1254;60635;-71
2024/01/28 04:51:59;;;;;;;31.20;19.20;;;;;;;2.80;74.21;101193.33;106289;1256;63773;-69
2024/01/28 04:54:26;;;;;;;31.90;18.90;;;;;;;2.81;74.17;101197.30;105597;1256;60732;-71
2024/01/28 04:56:53;;;;;;;34.20;20.10;;;;;;;2.81;74.18;101197.66;106080;1251;64027;-70
2024/01/28 04:59:20;;;;;;;33.30;20.00;;;;;;;2.81;74.18;101202.88;105979;1253;60521;-70
2024/01/28 05:01:46;;;;;;;33.20;20.80;;;;;;;2.81;74.18;101203.21;106138;1253;60361;-70
2024/01/28 05:04:14;;;;;;;35.90;21.10;;;;;;;2.81;74.16;101204.61;105664;1251;65243;-71
2024/01/28 05:06:41;;;;;;;34.60;20.80;;;;;;;2.81;74.15;101205.83;105658;1256;60485;-71
2024/01/28 05:09:10;;;;;;;35.60;20.50;;;;;;;2.81;74.06;101210.50;106023;1257;62841;-72
2024/01/28 05:11:37;;;;;;;29.70;19.60;;;;;;;2.81;74.13;101213.64;106083;1257;60412;-70
2024/01/28 05:14:06;;;;;;;31.90;19.40;;;;;;;2.81;74.05;101214.52;106170;1253;60353;-71
2024/01/28 05:16:33;;;;;;;33.50;20.10;;;;;;;2.82;74.11;101217.45;105427;1255;65205;-72
2024/01/28 05:19:02;;;;;;;33.70;19.40;;;;;;;2.82;74.10;101226.48;106075;1251;60600;-73
2024/01/28 05:21:29;;;;;;;35.10;20.80;;;;;;;2.83;74.05;101226.80;105574;1257;63935;-73
2024/01/28 05:23:56;;;;;;;35.10;21.00;;;;;;;2.82;74.05;101228.58;105877;1253;60472;-72
2024/01/28 05:26:23;;;;;;;39.30;21.80;;;;;;;2.82;74.12;101234.98;105489;1251;60454;-71
2024/01/28 05:28:50;;;;;;;34.20;20.40;;;;;;;2.83;74.09;101242.26;105653;1252;65210;-71
2024/01/28 05:31:17;;;;;;;36.10;20.70;;;;;;;2.84;74.07;101246.94;105638;1253;60539;-70
2024/01/28 05:33:45;;;;;;;34.80;20.10;;;;;;;2.83;74.10;101250.10;106137;1254;64421;-71
2024/01/28 05:36:13;;;;;;;37.50;21.90;;;;;;;2.82;74.06;101253.96;106376;1251;60296;-72
2024/01/28 05:38:40;;;;;;;36.40;21.30;;;;;;;2.82;74.04;101253.94;106007;1258;60442;-71
2024/01/28 05:41:07;;;;;;;35.00;20.10;;;;;;;2.83;74.07;101254.45;106025;1251;63714;-73
2024/01/28 05:43:34;;;;;;;34.60;20.40;;;;;;;2.82;74.04;101252.38;106032;1253;60475;-73
2024/01/28 05:46:02;;;;;;;35.00;20.10;;;;;;;2.82;74.01;101257.41;105961;1255;63552;-71
2024/01/28 05:48:30;;;;;;;34.70;20.50;;;;;;;2.83;73.98;101261.92;105730;1251;60435;-73
2024/01/28 05:50:57;;;;;;;33.10;19.90;;;;;;;2.82;73.99;101265.61;105813;1251;60406;-68
2024/01/28 05:53:24;;;;;;;30.90;18.60;;;;;;;2.82;74.01;101268.75;105868;1251;64031;-72
2024/01/28 05:55:52;;;;;;;33.30;19.80;;;;;;;2.80;73.98;101270.71;106313;1251;60605;-71
2024/01/28 05:58:21;;;;;;;29.70;18.50;;;;;;;2.79;74.00;101275.27;105998;1255;62796;-71
2024/01/28 06:00:48;;;;;;;32.50;18.90;;;;;;;2.79;73.99;101280.66;106072;1257;60798;-70
2024/01/28 06:03:16;;;;;;;32.40;18.50;;;;;;;2.78;73.95;101286.43;105713;1251;60437;-71
2024/01/28 06:05:43;;;;;;;30.20;18.10;;;;;;;2.77;74.04;101289.08;105549;1253;67055;-72
2024/01/28 06:08:10;;;;;;;28.60;18.50;;;;;;;2.76;74.03;101289.09;105644;1251;60543;-71
2024/01/28 06:10:37;;;;;;;33.20;18.90;;;;;;;2.76;74.08;101288.73;105839;1253;63927;-70
2024/01/28 06:13:04;;;;;;;31.80;18.20;;;;;;;2.76;74.06;101289.95;105725;1256;60335;-71
2024/01/28 06:15:31;;;;;;;29.70;17.00;;;;;;;2.77;74.01;101293.06;105711;1251;60959;-70
2024/01/28 06:18:01;;;;;;;28.50;17.20;;;;;;;2.78;74.03;101292.16;105753;1251;64003;-72
2024/01/28 06:20:28;;;;;;;32.80;16.80;;;;;;;2.78;73.97;101295.45;105788;1251;60486;-71
2024/01/28 06:22:55;;;;;;;27.50;16.60;;;;;;;2.80;74.00;101301.33;105885;1255;63449;-71
2024/01/28 06:25:22;;;;;;;27.90;16.20;;;;;;;2.81;73.90;101300.61;105714;1253;60349;-71
2024/01/28 06:27:49;;;;;;;26.90;16.50;;;;;;;2.82;73.94;101301.09;105683;1251;60555;-70
2024/01/28 06:30:16;;;;;;;25.50;15.00;;;;;;;2.83;73.89;101308.02;105888;1251;65181;-71
2024/01/28 06:32:43;;;;;;;25.10;15.90;;;;;;;2.84;73.87;101314.60;105983;1251;60457;-71
2024/01/28 06:35:10;;;;;;;25.60;15.50;;;;;;;2.85;73.88;101316.11;105631;1253;64013;-70
2024/01/28 06:37:37;;;;;;;29.50;16.00;;;;;;;2.86;73.81;101320.59;105578;1251;60541;-69
2024/01/28 06:40:04;;;;;;;26.90;15.90;;;;;;;2.88;73.84;101322.80;105613;1251;61361;-69
2024/01/28 06:42:32;;;;;;;25.70;15.30;;;;;;;2.90;73.85;101331.82;105679;1253;68391;-70
2024/01/28 06:44:59;;;;;;;25.50;15.40;;;;;;;2.92;73.80;101336.29;105877;1253;60520;-69
2024/01/28 06:47:26;;;;;;;25.90;16.00;;;;;;;2.92;73.76;101339.75;105684;1256;63843;-70
2024/01/28 06:49:53;;;;;;;25.50;15.30;;;;;;;2.93;73.73;101345.82;105770;1251;60352;-69
2024/01/28 06:52:20;;;;;;;24.60;14.80;;;;;;;2.95;73.69;101350.61;105551;1251;60402;-69
2024/01/28 06:54:47;;;;;;;23.20;14.20;;;;;;;2.96;73.66;101356.15;105752;1253;64926;-70
2024/01/28 06:57:15;;;;;;;24.90;14.20;;;;;;;2.97;73.59;101359.05;105703;1256;60349;-69
2024/01/28 06:59:43;;;;;;;24.80;15.20;;;;;;;2.98;73.57;101364.23;105740;1251;64110;-69
2024/01/28 07:02:11;;;;;;;23.70;14.90;;;;;;;2.99;73.62;101368.20;105730;1255;60522;-71
2024/01/28 07:04:38;;;;;;;23.40;14.30;;;;;;;3.00;73.57;101366.62;105896;1252;60387;-72
2024/01/28 07:07:06;;;;;;;23.60;14.30;;;;;;;3.01;73.46;101371.13;105747;1257;65207;-72
2024/01/28 07:09:33;;;;;;;23.40;14.90;;;;;;;3.01;73.50;101370.76;106025;1253;60556;-71
2024/01/28 07:12:00;;;;;;;23.60;14.50;;;;;;;3.02;73.48;101370.39;105760;1251;63825;-71
2024/01/28 07:14:27;;;;;;;22.90;14.80;;;;;;;3.02;73.40;101371.06;105724;1251;60404;-71
2024/01/28 07:16:54;;;;;;;22.30;15.20;;;;;;;3.03;73.39;101374.36;105754;1251;60489;-72
2024/01/28 07:19:21;;;;;;;30.00;19.60;;;;;;;3.03;73.31;101376.95;105670;1251;65656;-72
2024/01/28 07:21:50;;;;;;;25.60;16.10;;;;;;;3.05;73.32;101380.55;105739;1256;60796;-74
2024/01/28 07:24:17;;;;;;;28.10;17.90;;;;;;;3.05;73.28;101380.89;105837;1251;64513;-72
2024/01/28 07:26:46;;;;;;;28.20;17.60;;;;;;;3.05;73.22;101386.79;105670;1251;60868;-71
2024/01/28 07:29:13;;;;;;;29.90;19.60;;;;;;;3.07;73.23;101386.75;105792;1256;60434;-72
2024/01/28 07:31:40;;;;;;;29.90;20.10;;;;;;;3.08;73.25;101388.78;105445;1254;65281;-73
2024/01/28 07:34:08;;;;;;;28.30;18.50;;;;;;;3.09;73.20;101390.34;106452;1252;60397;-70
2024/01/28 07:36:36;;;;;;;27.30;18.60;;;;;;;3.10;73.14;101393.29;105648;1256;65374;-70
2024/01/28 07:39:07;;;;;;;28.20;16.90;;;;;;;3.11;73.14;101399.67;105816;1253;60543;-70
2024/01/28 07:41:38;;;;;;;24.60;16.30;;;;;;;3.13;73.04;101409.00;105691;1253;61030;-70
2024/01/28 07:44:16;;;;;;;24.90;15.90;;;;;;;3.14;73.08;101410.33;105373;1259;65689;-70
2024/01/28 07:46:46;;;;;;;27.20;16.20;;;;;;;3.14;73.01;101412.42;105829;1252;60495;-70
2024/01/28 07:49:14;;;;;;;27.00;16.90;;;;;;;3.15;72.99;101414.48;105826;1253;64007;-68
2024/01/28 07:51:42;;;;;;;28.60;18.30;;;;;;;3.16;72.94;101417.59;105642;1251;60464;-69
2024/01/28 07:54:10;;;;;;;26.20;15.80;;;;;;;3.18;72.98;101423.98;105658;1251;60920;-68
2024/01/28 07:56:37;;;;;;;26.00;16.20;;;;;;;3.20;72.93;101427.41;106946;1252;65984;-70
2024/01/28 07:59:04;;;;;;;25.40;16.10;;;;;;;3.21;72.91;101428.27;106004;1252;60427;-68
2024/01/28 08:01:32;;;;;;;25.20;16.00;;;;;;;3.20;72.80;101435.40;105653;1251;64070;-69
2024/01/28 08:04:00;;;;;;;27.60;16.50;;;;;;;3.21;72.75;101442.02;105790;1251;60340;-69
2024/01/28 08:06:28;;;;;;;25.50;17.00;;;;;;;3.22;72.74;101447.36;105557;1257;60438;-68
2024/01/28 08:08:56;;;;;;;25.00;15.70;;;;;;;3.24;72.70;101451.47;105508;1257;65203;-68
2024/01/28 08:11:25;;;;;;;24.10;16.00;;;;;;;3.25;72.63;101456.29;105993;1251;60437;-69
2024/01/28 08:13:52;;;;;;;26.30;16.40;;;;;;;3.27;72.58;101459.36;105787;1251;62838;-69
2024/01/28 08:16:19;;;;;;;23.90;16.20;;;;;;;3.28;72.58;101462.65;105631;1253;61436;-70
2024/01/28 08:18:47;;;;;;;23.30;15.00;;;;;;;3.29;72.47;101465.95;105861;1253;60442;-68
2024/01/28 08:21:15;;;;;;;25.40;16.50;;;;;;;3.30;72.48;101469.40;105875;1253;65112;-69
2024/01/28 08:23:42;;;;;;;25.70;16.30;;;;;;;3.31;72.41;101476.66;105572;1253;60565;-69
2024/01/28 08:26:09;;;;;;;24.90;16.00;;;;;;;3.30;72.33;101477.56;105893;1251;64084;-69
2024/01/28 08:28:36;;;;;;;24.40;15.10;;;;;;;3.30;72.31;101478.77;105513;1253;60958;-67
2024/01/28 08:31:03;;;;;;;22.90;14.70;;;;;;;3.31;72.27;101479.61;105560;1253;60864;-70
2024/01/28 08:33:31;;;;;;;24.20;14.80;;;;;;;3.32;72.25;101483.58;105487;1251;64889;-69
2024/01/28 08:35:58;;;;;;;24.40;14.50;;;;;;;3.34;72.17;101484.04;105787;1253;60445;-69
2024/01/28 08:38:24;;;;;;;21.10;14.60;;;;;;;3.34;72.15;101486.45;106186;1251;63769;-68
2024/01/28 08:40:52;;;;;;;26.30;15.50;;;;;;;3.36;72.10;101493.54;105687;1254;60543;-69
2024/01/28 08:43:18;;;;;;;25.60;15.10;;;;;;;3.36;71.96;101493.52;106170;1251;60540;-69
2024/01/28 08:45:45;;;;;;;23.80;14.60;;;;;;;3.36;72.05;101496.31;105886;1252;64979;-70
2024/01/28 08:48:13;;;;;;;23.70;15.50;;;;;;;3.37;71.95;101497.16;105885;1253;60444;-74
2024/01/28 08:50:40;;;;;;;25.90;15.90;;;;;;;3.37;71.91;101500.81;106128;1256;63882;-74
2024/01/28 08:53:07;;;;;;;26.40;16.00;;;;;;;3.37;71.91;101504.30;106375;1252;60409;-74
2024/01/28 08:55:34;;;;;;;29.30;16.40;;;;;;;3.37;71.87;101507.95;106019;1251;60774;-75
2024/01/28 08:58:01;;;;;;;29.70;17.20;;;;;;;3.38;71.84;101510.20;106007;1255;65056;-76
2024/01/28 09:00:29;;;;;;;30.70;16.90;;;;;;;3.38;71.81;101510.37;105879;1251;60453;-76
2024/01/28 09:02:55;;;;;;;29.50;17.40;;;;;;;3.40;71.83;101515.19;106108;1257;63936;-77
2024/01/28 09:05:23;;;;;;;30.80;17.30;;;;;;;3.42;71.76;101515.13;106014;1252;60489;-76
2024/01/28 09:07:51;;;;;;;31.20;17.90;;;;;;;3.43;71.79;101517.69;105957;1251;60435;-75
2024/01/28 09:10:21;;;;;;;35.90;18.50;;;;;;;3.47;71.86;101517.40;105816;1258;65105;-77
2024/01/28 09:12:48;;;;;;;33.30;18.20;;;;;;;3.50;71.77;101518.35;105939;1251;60290;-75
2024/01/28 09:15:15;;;;;;;34.80;18.80;;;;;;;3.53;71.82;101517.39;105839;1256;62535;-74
2024/01/28 09:17:42;;;;;;;34.60;18.10;;;;;;;3.54;71.75;101519.60;105804;1256;60550;-72
2024/01/28 09:20:09;;;;;;;35.10;18.40;;;;;;;3.56;71.75;101521.10;105892;1258;60338;-78
2024/01/28 09:22:36;;;;;;;32.50;17.90;;;;;;;3.58;71.70;101516.20;105929;1254;65028;-72
2024/01/28 09:25:03;;;;;;;34.60;18.60;;;;;;;3.60;71.77;101517.17;105968;1251;60515;-76
2024/01/28 09:27:31;;;;;;;35.00;18.80;;;;;;;3.63;71.71;101521.23;105736;1258;66000;-74
2024/01/28 09:29:58;;;;;;;37.10;19.40;;;;;;;3.65;71.77;101519.76;105780;1256;60714;-75
2024/01/28 09:32:25;;;;;;;30.60;16.50;;;;;;;3.68;71.62;101519.85;106065;1253;60467;-75
2024/01/28 09:34:52;;;;;;;36.40;18.80;;;;;;;3.70;71.63;101516.48;106109;1257;65288;-74
2024/01/28 09:37:21;;;;;;;34.50;18.60;;;;;;;3.72;71.73;101517.45;109638;1251;58847;-74
2024/01/28 09:39:50;;;;;;;30.10;16.10;;;;;;;3.77;71.68;101521.50;109311;1251;64827;-75
2024/01/28 09:42:30;;;;;;;35.90;17.60;;;;;;;3.80;71.65;101521.23;109519;1251;58165;-74
2024/01/28 09:44:58;;;;;;;31.80;17.50;;;;;;;3.82;71.47;101520.64;109438;1251;58295;-76
2024/01/28 09:47:25;;;;;;;31.30;18.30;;;;;;;3.81;71.33;101519.43;109540;1251;65000;-76
2024/01/28 09:49:51;;;;;;;31.40;18.00;;;;;;;3.82;71.23;101518.70;109631;1251;60256;-74
2024/01/28 09:52:18;;;;;;;32.90;17.10;;;;;;;3.85;71.14;101520.86;109549;1251;63867;-72
2024/01/28 09:54:45;;;;;;;34.10;18.20;;;;;;;3.86;71.08;101520.85;109530;1251;58140;-73
2024/01/28 09:57:12;;;;;;;32.60;18.40;;;;;;;3.86;70.92;101521.02;109544;1252;58035;-77
2024/01/28 09:59:38;;;;;;;32.90;18.60;;;;;;;3.87;70.88;101518.72;109513;1253;63748;-73
2024/01/28 10:02:05;;;;;;;31.90;18.90;;;;;;;3.86;70.80;101519.62;109523;1251;58317;-73
2024/01/28 10:04:32;;;;;;;34.70;18.60;;;;;;;3.85;70.73;101519.47;109429;1252;64865;-75
2024/01/28 10:07:00;;;;;;;34.90;19.10;;;;;;;3.85;70.67;101522.07;109590;1251;58142;-74
2024/01/28 10:09:27;;;;;;;31.00;18.50;;;;;;;3.85;70.57;101523.11;109652;1251;59185;-74
2024/01/28 10:11:57;;;;;;;37.00;20.00;;;;;;;3.84;70.52;101523.67;109668;1253;64993;-75
2024/01/28 10:14:24;;;;;;;33.00;19.40;;;;;;;3.84;70.49;101528.39;109515;1251;58224;-74
2024/01/28 10:16:52;;;;;;;32.90;19.30;;;;;;;3.83;70.41;101530.84;109345;1251;62846;-75
2024/01/28 10:19:19;;;;;;;34.30;19.10;;;;;;;3.84;70.36;101533.79;109388;1254;58692;-74
2024/01/28 10:21:48;;;;;;;35.80;20.00;;;;;;;3.85;70.28;101540.20;109641;1251;58188;-75
2024/01/28 10:24:17;;;;;;;32.70;18.80;;;;;;;3.86;70.40;101541.91;109316;1251;264077;-75
2024/01/28 10:26:44;;;;;;;30.80;18.70;;;;;;;3.87;70.32;101540.84;109529;1251;58204;-74
2024/01/28 10:29:12;;;;;;;32.50;18.70;;;;;;;3.88;70.29;101541.00;109479;1251;64577;-74
2024/01/28 10:31:40;;;;;;;29.00;17.70;;;;;;;3.88;70.28;101541.67;109496;1251;58189;-75
2024/01/28 10:34:09;;;;;;;34.00;19.00;;;;;;;3.90;70.30;101541.80;109671;1251;58204;-76
2024/01/28 10:36:36;;;;;;;32.70;19.50;;;;;;;3.89;70.12;101538.85;109426;1251;65506;-76
2024/01/28 10:39:04;;;;;;;35.30;20.40;;;;;;;3.88;70.12;101539.26;109563;1251;65952;-75
2024/01/28 10:41:34;;;;;;;31.90;19.50;;;;;;;3.86;70.13;101538.26;109267;1251;62664;-75
2024/01/28 10:44:08;;;;;;;35.20;19.30;;;;;;;3.87;70.09;101542.40;109262;1253;58172;-75
2024/01/28 10:46:39;;;;;;;34.70;20.00;;;;;;;3.88;70.05;101543.95;109522;1251;58155;-76
2024/01/28 10:49:06;;;;;;;32.70;19.40;;;;;;;3.88;69.97;101541.69;109410;1251;65064;-74
2024/01/28 10:51:35;;;;;;;36.20;20.60;;;;;;;3.88;70.07;101544.66;109638;1251;58701;-74
2024/01/28 10:54:04;;;;;;;35.30;19.50;;;;;;;3.88;70.02;101550.39;109360;1251;62579;-77
2024/01/28 10:56:37;;;;;;;35.80;19.20;;;;;;;3.90;70.07;101553.64;109288;1251;58282;-75
2024/01/28 10:59:04;;;;;;;38.80;20.70;;;;;;;3.92;70.16;101554.60;109452;1251;58100;-76
2024/01/28 11:01:31;;;;;;;40.40;21.00;;;;;;;3.95;70.18;101555.56;109457;1251;65288;-75
2024/01/28 11:03:58;;;;;;;37.10;20.60;;;;;;;3.98;70.24;101553.88;109443;1251;67462;-73
2024/01/28 11:06:27;;;;;;;37.60;20.70;;;;;;;4.02;70.31;101556.00;109339;1253;66192;-74
2024/01/28 11:08:57;;;;;;;35.60;19.50;;;;;;;4.06;70.37;101557.11;109454;1253;58210;-73
2024/01/28 11:11:24;;;;;;;35.80;19.50;;;;;;;4.10;70.43;101562.05;109588;1254;58161;-74